^^
Datos históricos de la estación: Murcia-Puente Tocinos
Diario Informe para Marzo 28, 2019 Unidades:  Ambas    Ingés   Métrico
Diario Semanal Mensual Anual
  Máxima: Mínima: Promedio:
Temperatura: 72 °F /  22.2 °C 55.8 °F /  13.2 °C 63.3 °F /  17.4 °C
Punto de rocio: 60.4 °F /  15.8 °C 53.6 °F /  12 °C 57.9 °F /  14.4 °C
Humedad: 93% 66.9% 84%
Velocidad viento: 5.9mph /  9.5km/h - 2.7mph /  4.4km/h
Racha viento: 10.4mph /  16.7km/h - -
Viento- - SSO
Presión: 30.1 in /  1019.3 hPa 30 in /  1014.9 hPa -
Precipitación: 0.01 in /  0.3 mm    
 
 
Tabla de datos para Marzo 28, 2019
Hora Temperatura Punto de rocio Presión Viento Velocidad viento Racha viento Humedad Intensidad lluvia(por hora) Nubes
00:04 60.8 °F /  16 °C 58.3 °F /  14.6 °C 30.1in /  1019.3hPa Calm     91% 0in /  0.0mm
00:09 61 °F /  16.1 °C 58.1 °F /  14.5 °C 30.1in /  1019.3hPa Calm     90.6% 0in /  0.0mm
00:14 60.8 °F /  16 °C 57.7 °F /  14.3 °C 30.1in /  1019.2hPa Calm   2mph /  3.2km/h 90% 0in /  0.0mm
00:19 60.8 °F /  16 °C 57.7 °F /  14.3 °C 30.1in /  1019.2hPa Calm   3.1mph /  5km/h 90% 0in /  0.0mm
00:24 60.6 °F /  15.9 °C 57.7 °F /  14.3 °C 30.1in /  1019.2hPa Sur 1.1mph /  1.7km/h 4.6mph /  7.4km/h 90% 0in /  0.0mm
00:29 60.6 °F /  15.9 °C 57.7 °F /  14.3 °C 30.1in /  1019.1hPa Sur 1.4mph /  2.2km/h 5mph /  8km/h 90% 0in /  0.0mm
00:34 60.6 °F /  15.9 °C 57.7 °F /  14.3 °C 30.1in /  1019.1hPa SSE 2.1mph /  3.4km/h 5mph /  8km/h 90% 0in /  0.0mm
00:39 60.6 °F /  15.9 °C 57.7 °F /  14.3 °C 30.1in /  1019.1hPa Sur 2.4mph /  3.9km/h 5mph /  8km/h 90% 0in /  0.0mm
00:44 60.6 °F /  15.9 °C 57.9 °F /  14.4 °C 30.1in /  1019.0hPa SSO 2.8mph /  4.5km/h 5mph /  8km/h 90.7% 0in /  0.0mm
00:49 60.6 °F /  15.9 °C 57.9 °F /  14.4 °C 30.1in /  1019.0hPa SSO 2.9mph /  4.7km/h 3mph /  4.8km/h 91% 0in /  0.0mm
00:54 60.6 °F /  15.9 °C 57.9 °F /  14.4 °C 30.1in /  1019.0hPa SSO 1.7mph /  2.8km/h 2.9mph /  4.7km/h 91% 0in /  0.0mm
00:59 60.6 °F /  15.9 °C 57.9 °F /  14.4 °C 30.1in /  1018.9hPa SSO 1.4mph /  2.2km/h 3mph /  4.8km/h 91% 0in /  0.0mm
01:04 60.6 °F /  15.9 °C 57.9 °F /  14.4 °C 30.1in /  1018.9hPa SSO 1.4mph /  2.2km/h 3mph /  4.8km/h 91% 0in /  0.0mm
01:09 60.4 °F /  15.8 °C 57.6 °F /  14.2 °C 30.1in /  1018.9hPa SSO 1.4mph /  2.2km/h   90% 0in /  0.0mm
01:14 60.4 °F /  15.8 °C 57.6 °F /  14.2 °C 30.1in /  1018.8hPa SSO 0.4mph /  0.6km/h   90.6% 0in /  0.0mm
01:19 60.3 °F /  15.7 °C 57.2 °F /  14 °C 30.1in /  1018.8hPa Calm   2.9mph /  4.7km/h 90% 0in /  0.0mm
01:24 59.9 °F /  15.5 °C 57 °F /  13.9 °C 30.1in /  1018.8hPa Calm   3.5mph /  5.6km/h 90% 0in /  0.0mm
01:29 59.5 °F /  15.3 °C 56.7 °F /  13.7 °C 30.1in /  1018.7hPa Calm   3mph /  4.8km/h 90% 0in /  0.0mm
01:34 59.4 °F /  15.2 °C 56.7 °F /  13.7 °C 30.1in /  1018.7hPa SO 1mph /  1.6km/h 2.3mph /  3.7km/h 90.7% 0in /  0.0mm
01:39 59.4 °F /  15.2 °C 56.7 °F /  13.7 °C 30.1in /  1018.8hPa SO 1.4mph /  2.2km/h 2mph /  3.2km/h 91% 0in /  0.0mm
01:44 59.2 °F /  15.1 °C 56.7 °F /  13.7 °C 30.1in /  1018.8hPa SO 0.4mph /  0.6km/h 2.9mph /  4.7km/h 91% 0in /  0.0mm
01:49 59.2 °F /  15.1 °C 56.7 °F /  13.7 °C 30.1in /  1018.8hPa Calm   3mph /  4.8km/h 91.1% 0in /  0.0mm
01:54 59.2 °F /  15.1 °C 56.8 °F /  13.8 °C 30.1in /  1018.8hPa Calm   2.3mph /  3.7km/h 92% 0in /  0.0mm
01:59 59 °F /  15 °C 56.8 °F /  13.8 °C 30.1in /  1018.7hPa Calm   2.3mph /  3.7km/h 92% 0in /  0.0mm
02:04 59.2 °F /  15.1 °C 56.8 °F /  13.8 °C 30.1in /  1018.7hPa Calm   2.4mph /  3.9km/h 92% 0in /  0.0mm
02:09 59.2 °F /  15.1 °C 56.8 °F /  13.8 °C 30.1in /  1018.7hPa Calm   3.5mph /  5.6km/h 92% 0in /  0.0mm
02:14 59.4 °F /  15.2 °C 57 °F /  13.9 °C 30.1in /  1018.6hPa ESE 1.4mph /  2.2km/h 4.6mph /  7.4km/h 92% 0in /  0.0mm
02:19 59.4 °F /  15.2 °C 57 °F /  13.9 °C 30.1in /  1018.6hPa ESE 1.8mph /  2.9km/h 5mph /  8km/h 92% 0in /  0.0mm
02:24 59.4 °F /  15.2 °C 57 °F /  13.9 °C 30.1in /  1018.6hPa SE 1.9mph /  3.1km/h 4.6mph /  7.4km/h 92.1% 0in /  0.0mm
02:29 59.4 °F /  15.2 °C 57 °F /  13.9 °C 30.1in /  1018.5hPa SSE 2mph /  3.2km/h 5mph /  8km/h 92% 0in /  0.0mm
02:34 59.2 °F /  15.1 °C 56.8 °F /  13.8 °C 30.1in /  1018.5hPa SSO 2.3mph /  3.7km/h 5mph /  8km/h 92% 0in /  0.0mm
02:39 59.2 °F /  15.1 °C 56.8 °F /  13.8 °C 30.1in /  1018.5hPa SSE 2.4mph /  3.9km/h 4mph /  6.4km/h 92% 0in /  0.0mm
02:44 59.2 °F /  15.1 °C 56.8 °F /  13.8 °C 30.1in /  1018.4hPa Sur 2.4mph /  3.9km/h 4.6mph /  7.4km/h 92.1% 0in /  0.0mm
02:49 59.2 °F /  15.1 °C 57.2 °F /  14 °C 30.1in /  1018.4hPa Sur 2.4mph /  3.9km/h 5mph /  8km/h 92.9% 0in /  0.0mm
02:54 59.2 °F /  15.1 °C 57.2 °F /  14 °C 30.1in /  1018.4hPa Sur 2.8mph /  4.5km/h 5mph /  8km/h 93% 0in /  0.0mm
02:59 59.2 °F /  15.1 °C 57.2 °F /  14 °C 30.1in /  1018.2hPa Sur 2.9mph /  4.7km/h 5mph /  8km/h 93% 0in /  0.0mm
03:04 59.2 °F /  15.1 °C 57.2 °F /  14 °C 30.1in /  1018.2hPa Sur 2.9mph /  4.7km/h 4mph /  6.4km/h 92.9% 0in /  0.0mm
03:09 59.2 °F /  15.1 °C 56.8 °F /  13.8 °C 30.1in /  1018.2hPa Sur 2.9mph /  4.7km/h 4mph /  6.4km/h 92% 0in /  0.0mm
03:14 59.2 °F /  15.1 °C 56.8 °F /  13.8 °C 30.1in /  1018.0hPa Sur 2.2mph /  3.6km/h 4mph /  6.4km/h 92% 0in /  0.0mm
03:19 59 °F /  15 °C 56.7 °F /  13.7 °C 30.1in /  1018.0hPa Sur 2mph /  3.2km/h 3.6mph /  5.8km/h 92% 0in /  0.0mm
03:24 58.6 °F /  14.8 °C 56.1 °F /  13.4 °C 30.1in /  1018.0hPa Sur 1.9mph /  3km/h 4mph /  6.4km/h 91.2% 0in /  0.0mm
03:29 58.5 °F /  14.7 °C 56.1 °F /  13.4 °C 30.1in /  1017.9hPa Sur 1.8mph /  2.9km/h 4mph /  6.4km/h 91.6% 0in /  0.0mm
03:34 58.5 °F /  14.7 °C 56.1 °F /  13.4 °C 30.1in /  1017.9hPa Sur 1.9mph /  3.1km/h 3mph /  4.8km/h 92% 0in /  0.0mm
03:39 58.5 °F /  14.7 °C 56.1 °F /  13.4 °C 30.1in /  1017.9hPa Sur 2mph /  3.2km/h 2.4mph /  3.9km/h 92% 0in /  0.0mm
03:44 58.3 °F /  14.6 °C 55.9 °F /  13.3 °C 30.1in /  1017.7hPa Sur 0.6mph /  0.9km/h 2.4mph /  3.9km/h 92% 0in /  0.0mm
03:49 58.3 °F /  14.6 °C 55.9 °F /  13.3 °C 30.1in /  1017.7hPa Calm   2.4mph /  3.9km/h 92% 0in /  0.0mm
03:54 58.3 °F /  14.6 °C 55.9 °F /  13.3 °C 30.1in /  1017.9hPa SE 1mph /  1.6km/h 3.5mph /  5.6km/h 92% 0in /  0.0mm
03:59 58.3 °F /  14.6 °C 55.9 °F /  13.3 °C 30.1in /  1017.9hPa SE 1.4mph /  2.2km/h 3.5mph /  5.6km/h 92% 0in /  0.0mm
04:04 58.1 °F /  14.5 °C 55.9 °F /  13.3 °C 30.1in /  1017.9hPa SSE 1.9mph /  3km/h 5.8mph /  9.3km/h 92% 0in /  0.0mm
04:09 58.1 °F /  14.5 °C 55.8 °F /  13.2 °C 30.1in /  1017.9hPa Sur 2mph /  3.2km/h 6mph /  9.7km/h 92% 0in /  0.0mm
04:14 58.1 °F /  14.5 °C 55.8 °F /  13.2 °C 30.1in /  1017.9hPa SSO 3.2mph /  5.1km/h 6mph /  9.7km/h 92% 0in /  0.0mm
04:19 57.9 °F /  14.4 °C 55.6 °F /  13.1 °C 30.1in /  1017.9hPa Sur 3.6mph /  5.8km/h 5mph /  8km/h 92% 0in /  0.0mm
04:24 57.9 °F /  14.4 °C 55.6 °F /  13.1 °C 30.1in /  1017.9hPa SE 3mph /  4.9km/h 5mph /  8km/h 92% 0in /  0.0mm
04:29 57.7 °F /  14.3 °C 55.6 °F /  13.1 °C 30.1in /  1017.8hPa SE 2.9mph /  4.7km/h 5.2mph /  8.4km/h 92% 0in /  0.0mm
04:34 57.6 °F /  14.2 °C 55.4 °F /  13 °C 30.1in /  1017.8hPa SSE 3mph /  4.9km/h 5.8mph /  9.3km/h 92% 0in /  0.0mm
04:39 57.6 °F /  14.2 °C 55.2 °F /  12.9 °C 30.1in /  1017.8hPa SSE 3.1mph /  5km/h 6.2mph /  10km/h 92% 0in /  0.0mm
04:44 57.4 °F /  14.1 °C 55.2 °F /  12.9 °C 30.1in /  1017.7hPa SSO 3.7mph /  6km/h 7.4mph /  11.9km/h 92.2% 0in /  0.0mm
04:49 57.6 °F /  14.2 °C 55.6 °F /  13.1 °C 30.1in /  1017.7hPa SSO 4mph /  6.5km/h 7mph /  11.3km/h 93% 0in /  0.0mm
04:54 57.6 °F /  14.2 °C 55.6 °F /  13.1 °C 30.1in /  1017.7hPa SSO 4.2mph /  6.8km/h 7.4mph /  11.9km/h 93% 0in /  0.0mm
04:59 57.7 °F /  14.3 °C 55.8 °F /  13.2 °C 30.1in /  1017.7hPa SSO 4.3mph /  6.9km/h 7mph /  11.3km/h 93% 0in /  0.0mm
05:04 57.7 °F /  14.3 °C 55.8 °F /  13.2 °C 30.1in /  1017.7hPa SSO 4.3mph /  6.9km/h 7mph /  11.3km/h 93% 0in /  0.0mm
05:09 57.7 °F /  14.3 °C 55.8 °F /  13.2 °C 30.1in /  1017.7hPa SSO 4.3mph /  6.9km/h 6mph /  9.7km/h 93% 0in /  0.0mm
05:14 57.9 °F /  14.4 °C 55.9 °F /  13.3 °C 30.1in /  1017.6hPa SSO 3.4mph /  5.5km/h 5.8mph /  9.3km/h 93% 0in /  0.0mm
05:19 57.9 °F /  14.4 °C 55.8 °F /  13.2 °C 30.1in /  1017.6hPa SSO 3.1mph /  5km/h 6mph /  9.7km/h 92.7% 0in /  0.0mm
05:24 57.9 °F /  14.4 °C 55.6 °F /  13.1 °C 30.1in /  1017.7hPa SSO 3.5mph /  5.6km/h 6mph /  9.7km/h 92% 0in /  0.0mm
05:29 57.9 °F /  14.4 °C 55.6 °F /  13.1 °C 30.1in /  1017.7hPa SSO 3.6mph /  5.8km/h 5mph /  8km/h 92% 0in /  0.0mm
05:34 57.7 °F /  14.3 °C 55.4 °F /  13 °C 30.1in /  1017.7hPa SSO 3mph /  4.9km/h 5mph /  8km/h 92% 0in /  0.0mm
05:39 57.7 °F /  14.3 °C 55.4 °F /  13 °C 30.1in /  1017.7hPa SSO 2.9mph /  4.7km/h 5mph /  8km/h 92% 0in /  0.0mm
05:44 57.7 °F /  14.3 °C 55.6 °F /  13.1 °C 30.1in /  1017.6hPa SO 2.9mph /  4.7km/h 5.9mph /  9.5km/h 92% 0in /  0.0mm
05:49 57.9 °F /  14.4 °C 55.6 °F /  13.1 °C 30.1in /  1017.6hPa SO 2.9mph /  4.7km/h 6mph /  9.7km/h 92% 0in /  0.0mm
05:54 57.9 °F /  14.4 °C 55.6 °F /  13.1 °C 30.1in /  1017.6hPa SO 3.4mph /  5.5km/h 6mph /  9.7km/h 92% 0in /  0.0mm
05:59 57.7 °F /  14.3 °C 55.4 °F /  13 °C 30.1in /  1017.6hPa SO 3.6mph /  5.8km/h 5.8mph /  9.3km/h 92% 0in /  0.0mm
06:04 57.7 °F /  14.3 °C 55.4 °F /  13 °C 30.1in /  1017.6hPa SO 2.7mph /  4.3km/h 6mph /  9.7km/h 92% 0in /  0.0mm
06:09 57.7 °F /  14.3 °C 55.4 °F /  13 °C 30.1in /  1017.6hPa SSO 2.4mph /  3.9km/h 5mph /  8km/h 92% 0in /  0.0mm
06:14 57.7 °F /  14.3 °C 55.4 °F /  13 °C 30.1in /  1017.5hPa Sur 2.8mph /  4.5km/h 5mph /  8km/h 92% 0in /  0.0mm
06:19 57.7 °F /  14.3 °C 55.4 °F /  13 °C 30.1in /  1017.5hPa Sur 2.9mph /  4.7km/h 5.2mph /  8.4km/h 92% 0in /  0.0mm
06:24 57.7 °F /  14.3 °C 55.4 °F /  13 °C 30.1in /  1017.5hPa SSE 3mph /  4.9km/h 5mph /  8km/h 91.8% 0in /  0.0mm
06:29 57.2 °F /  14 °C 54.7 °F /  12.6 °C 30in /  1017.4hPa SE 3.1mph /  5km/h 6.4mph /  10.3km/h 91% 0.01in /  0.3mm
06:34 56.7 °F /  13.7 °C 54.1 °F /  12.3 °C 30in /  1017.4hPa SSE 3.7mph /  6km/h 7mph /  11.3km/h 91% 0.01in /  0.3mm
06:39 56.5 °F /  13.6 °C 54 °F /  12.2 °C 30.1in /  1017.7hPa SSE 4mph /  6.5km/h 7mph /  11.3km/h 91.4% 0.01in /  0.3mm
06:44 56.1 °F /  13.4 °C 53.8 °F /  12.1 °C 30.1in /  1017.7hPa SSE 4.2mph /  6.8km/h 6mph /  9.7km/h 92% 0.01in /  0.3mm
06:49 56.1 °F /  13.4 °C 53.8 °F /  12.1 °C 30.1in /  1017.7hPa SSE 4.3mph /  6.9km/h 6.9mph /  11.1km/h 92% 0.01in /  0.3mm
06:54 55.9 °F /  13.3 °C 53.8 °F /  12.1 °C 30.1in /  1017.7hPa SSE 4.3mph /  6.9km/h 7mph /  11.3km/h 92.3% 0.01in /  0.3mm
06:59 55.9 °F /  13.3 °C 53.6 °F /  12 °C 30.1in /  1017.6hPa SSE 4.3mph /  6.9km/h 8.5mph /  13.7km/h 92.3% 0.01in /  0.3mm
07:04 55.8 °F /  13.2 °C 53.8 °F /  12.1 °C 30.1in /  1017.6hPa SSE 4.3mph /  6.9km/h 9mph /  14.5km/h 93% 0.01in /  0.3mm
07:09 55.9 °F /  13.3 °C 54 °F /  12.2 °C 30.1in /  1017.6hPa Sur 4.3mph /  6.9km/h 6mph /  9.7km/h 93% 0.01in /  0.3mm
07:14 55.9 °F /  13.3 °C 54 °F /  12.2 °C 30.1in /  1017.6hPa SSE 4.1mph /  6.6km/h 5.9mph /  9.5km/h 93% 0.01in /  0.3mm
07:19 55.9 °F /  13.3 °C 54 °F /  12.2 °C 30.1in /  1017.6hPa SSE 4mph /  6.5km/h 6mph /  9.7km/h 93% 0.01in /  0.3mm
07:24 56.1 °F /  13.4 °C 54.1 °F /  12.3 °C 30.1in /  1017.6hPa SSE 3.7mph /  6km/h 6.2mph /  10km/h 93% 0.01in /  0.3mm
07:29 56.1 °F /  13.4 °C 54.1 °F /  12.3 °C 30.1in /  1017.6hPa Sur 3.6mph /  5.8km/h 6mph /  9.7km/h 93% 0.01in /  0.3mm
07:34 56.1 °F /  13.4 °C 54.1 °F /  12.3 °C 30.1in /  1017.6hPa SSO 3.2mph /  5.2km/h 6mph /  9.7km/h 93% 0in /  0.0mm
07:39 56.3 °F /  13.5 °C 54.3 °F /  12.4 °C 30.1in /  1017.7hPa SSO 3.1mph /  5km/h 5mph /  8km/h 93% 0in /  0.0mm
07:44 56.5 °F /  13.6 °C 54.5 °F /  12.5 °C 30.1in /  1017.7hPa SSO 2.6mph /  4.2km/h 5mph /  8km/h 93% 0in /  0.0mm
07:49 56.5 °F /  13.6 °C 54.5 °F /  12.5 °C 30.1in /  1017.7hPa SSO 2.4mph /  3.9km/h 4mph /  6.4km/h 93% 0in /  0.0mm
07:54 56.7 °F /  13.7 °C 54.7 °F /  12.6 °C 30.1in /  1017.7hPa SSO 1.9mph /  3.1km/h 4mph /  6.4km/h 93% 0in /  0.0mm
07:59 56.7 °F /  13.7 °C 54.7 °F /  12.6 °C 30.1in /  1017.7hPa SSO 1.8mph /  2.9km/h 3mph /  4.8km/h 93% 0in /  0.0mm
08:04 56.8 °F /  13.8 °C 54.9 °F /  12.7 °C 30.1in /  1017.7hPa SSO 0.4mph /  0.7km/h 2.4mph /  3.9km/h 93% 0in /  0.0mm
08:09 56.8 °F /  13.8 °C 54.9 °F /  12.7 °C 30.1in /  1017.8hPa Calm   2.3mph /  3.7km/h 93% 0in /  0.0mm
08:14 56.8 °F /  13.8 °C 54.7 °F /  12.6 °C 30.1in /  1017.8hPa Sur 1.1mph /  1.7km/h 2mph /  3.2km/h 92.6% 0in /  0.0mm
08:19 57 °F /  13.9 °C 55 °F /  12.8 °C 30.1in /  1017.8hPa Sur 1.4mph /  2.2km/h 3.6mph /  5.8km/h 93% 0in /  0.0mm
08:24 57 °F /  13.9 °C 54.9 °F /  12.7 °C 30.1in /  1017.9hPa Oeste 0.4mph /  0.6km/h 5.2mph /  8.4km/h 92.5% 0in /  0.0mm
08:29 57.4 °F /  14.1 °C 55.2 °F /  12.9 °C 30.1in /  1017.9hPa Calm   5.8mph /  9.3km/h 92.6% 0in /  0.0mm
08:34 57.7 °F /  14.3 °C 55.8 °F /  13.2 °C 30.1in /  1017.9hPa OSO 2.4mph /  3.8km/h 8.5mph /  13.7km/h 93% 0in /  0.0mm
08:39 58.1 °F /  14.5 °C 55.9 °F /  13.3 °C 30.1in /  1018.0hPa OSO 3.1mph /  5km/h 9mph /  14.5km/h 92.6% 0in /  0.0mm
08:44 58.5 °F /  14.7 °C 56.3 °F /  13.5 °C 30.1in /  1018.0hPa SSO 3.8mph /  6.1km/h 6mph /  9.7km/h 93% 0in /  0.0mm
08:49 58.6 °F /  14.8 °C 56.7 °F /  13.7 °C 30.1in /  1018.0hPa SSE 4mph /  6.5km/h 6.9mph /  11.1km/h 93% 0in /  0.0mm
08:54 58.8 °F /  14.9 °C 56.7 °F /  13.7 °C 30.1in /  1018.1hPa Sur 4mph /  6.5km/h 7mph /  11.3km/h 92.2% 0in /  0.0mm
08:59 59.2 °F /  15.1 °C 56.8 °F /  13.8 °C 30.1in /  1018.1hPa Sur 4mph /  6.5km/h 7mph /  11.3km/h 92% 0in /  0.0mm
09:04 59.4 °F /  15.2 °C 57 °F /  13.9 °C 30.1in /  1018.1hPa Sur 4.2mph /  6.8km/h 8.1mph /  13km/h 92% 0in /  0.0mm
09:09 59.4 °F /  15.2 °C 57 °F /  13.9 °C 30.1in /  1018.3hPa SSO 4.3mph /  6.9km/h 8.1mph /  13km/h 91.8% 0in /  0.0mm
09:14 59.4 °F /  15.2 °C 57 °F /  13.9 °C 30.1in /  1018.3hPa SSO 5mph /  8km/h 8mph /  12.9km/h 92% 0in /  0.0mm
09:19 59.5 °F /  15.3 °C 57 °F /  13.9 °C 30.1in /  1018.3hPa Sur 5.2mph /  8.4km/h 6.9mph /  11.1km/h 91.4% 0in /  0.0mm
09:24 59.5 °F /  15.3 °C 57 °F /  13.9 °C 30.1in /  1018.3hPa Sur 4.5mph /  7.3km/h 7.4mph /  11.9km/h 91% 0in /  0.0mm
09:29 59.5 °F /  15.3 °C 56.8 °F /  13.8 °C 30.1in /  1018.3hPa SSE 4.3mph /  6.9km/h 8.1mph /  13km/h 91% 0in /  0.0mm
09:34 59.5 °F /  15.3 °C 57.2 °F /  14 °C 30.1in /  1018.3hPa Sur 5mph /  8km/h 8.5mph /  13.7km/h 91.7% 0in /  0.0mm
09:39 59.5 °F /  15.3 °C 57.2 °F /  14 °C 30.1in /  1018.6hPa Sur 5.2mph /  8.4km/h 9mph /  14.5km/h 92% 0in /  0.0mm
09:44 59.7 °F /  15.4 °C 57.4 °F /  14.1 °C 30.1in /  1018.6hPa SSO 5.7mph /  9.2km/h 8mph /  12.9km/h 92% 0in /  0.0mm
09:49 59.7 °F /  15.4 °C 57.6 °F /  14.2 °C 30.1in /  1018.6hPa Sur 5.9mph /  9.5km/h 7mph /  11.3km/h 92% 0in /  0.0mm
09:54 60.1 °F /  15.6 °C 57.4 °F /  14.1 °C 30.1in /  1018.7hPa SSO 5mph /  8.1km/h 7.4mph /  11.9km/h 91.2% 0in /  0.0mm
09:59 60.3 °F /  15.7 °C 57.6 °F /  14.2 °C 30.1in /  1018.7hPa SSO 4.7mph /  7.6km/h 7mph /  11.3km/h 91% 0in /  0.0mm
10:04 60.4 °F /  15.8 °C 57.9 °F /  14.4 °C 30.1in /  1018.7hPa Sur 4.4mph /  7.1km/h 6.2mph /  10km/h 91% 0in /  0.0mm
10:09 60.8 °F /  16 °C 57.9 °F /  14.4 °C 30.1in /  1018.7hPa SSE 4.3mph /  6.9km/h 6.9mph /  11.1km/h 90.3% 0in /  0.0mm
10:14 61.2 °F /  16.2 °C 57.9 °F /  14.4 °C 30.1in /  1018.4hPa SSE 4.1mph /  6.6km/h 7mph /  11.3km/h 88.9% 0in /  0.0mm
10:19 61.5 °F /  16.4 °C 57.9 °F /  14.4 °C 30.1in /  1018.4hPa SSO 4mph /  6.5km/h 7mph /  11.3km/h 88.1% 0in /  0.0mm
10:24 61.9 °F /  16.6 °C 57.9 °F /  14.4 °C 30.1in /  1018.4hPa SO 3.7mph /  6km/h 6.9mph /  11.1km/h 86.7% 0in /  0.0mm
10:29 62.1 °F /  16.7 °C 57.6 °F /  14.2 °C 30.1in /  1018.3hPa OSO 3.6mph /  5.8km/h 7mph /  11.3km/h 85.1% 0in /  0.0mm
10:34 62.2 °F /  16.8 °C 57.7 °F /  14.3 °C 30.1in /  1018.3hPa Oeste 3.9mph /  6.3km/h 6mph /  9.7km/h 85% 0in /  0.0mm
10:39 62.6 °F /  17 °C 57.7 °F /  14.3 °C 30.1in /  1018.3hPa SO 4mph /  6.5km/h 6mph /  9.7km/h 84.5% 0in /  0.0mm
10:44 63 °F /  17.2 °C 57.9 °F /  14.4 °C 30.1in /  1018.3hPa OSO 2.8mph /  4.5km/h 6.9mph /  11.1km/h 83.6% 0in /  0.0mm
10:49 63.1 °F /  17.3 °C 57.9 °F /  14.4 °C 30.1in /  1018.3hPa Oeste 2.4mph /  3.9km/h 7mph /  11.3km/h 83% 0in /  0.0mm
10:54 63.3 °F /  17.4 °C 58.1 °F /  14.5 °C 30.1in /  1018.3hPa OSO 2.4mph /  3.9km/h 5mph /  8km/h 83% 0in /  0.0mm
10:59 63.9 °F /  17.7 °C 58.3 °F /  14.6 °C 30.1in /  1018.3hPa SSE 2.4mph /  3.9km/h 5.2mph /  8.4km/h 82.1% 0in /  0.0mm
11:04 64.2 °F /  17.9 °C 58.3 °F /  14.6 °C 30.1in /  1018.3hPa Sur 2.4mph /  3.9km/h 5mph /  8km/h 81.2% 0in /  0.0mm
11:09 64.6 °F /  18.1 °C 58.5 °F /  14.7 °C 30.1in /  1018.3hPa SE 2.4mph /  3.9km/h 5mph /  8km/h 81% 0in /  0.0mm
11:14 64.9 °F /  18.3 °C 58.6 °F /  14.8 °C 30.1in /  1018.0hPa SE 2.1mph /  3.4km/h 5mph /  8km/h 80.4% 0in /  0.0mm
11:19 65.1 °F /  18.4 °C 58.5 °F /  14.7 °C 30.1in /  1018.0hPa SSE 2mph /  3.2km/h 5mph /  8km/h 79.3% 0in /  0.0mm
11:24 65.1 °F /  18.4 °C 58.8 °F /  14.9 °C 30.1in /  1018.0hPa SO 2.7mph /  4.3km/h 5mph /  8km/h 79.9% 0in /  0.0mm
11:29 65.1 °F /  18.4 °C 58.8 °F /  14.9 °C 30.1in /  1017.9hPa ONO 2.9mph /  4.7km/h 5mph /  8km/h 80% 0in /  0.0mm
11:34 65.3 °F /  18.5 °C 59 °F /  15 °C 30.1in /  1017.9hPa Oeste 2.1mph /  3.3km/h 5mph /  8km/h 80% 0in /  0.0mm
11:39 65.7 °F /  18.7 °C 59 °F /  15 °C 30.1in /  1018.0hPa SO 1.8mph /  2.9km/h 5mph /  8km/h 79.2% 0in /  0.0mm
11:44 65.8 °F /  18.8 °C 59.2 °F /  15.1 °C 30.1in /  1018.0hPa SSO 1.9mph /  3.1km/h 5mph /  8km/h 79.5% 0in /  0.0mm
11:49 66.2 °F /  19 °C 59.2 °F /  15.1 °C 30.1in /  1018.0hPa SSO 2mph /  3.2km/h 4.6mph /  7.4km/h 78.4% 0in /  0.0mm
11:54 66.4 °F /  19.1 °C 59 °F /  15 °C 30.1in /  1018.0hPa Oeste 1.9mph /  3km/h 5mph /  8km/h 77.1% 0in /  0.0mm
11:59 66.6 °F /  19.2 °C 59 °F /  15 °C 30.1in /  1017.9hPa Oeste 1.8mph /  2.9km/h 5.2mph /  8.4km/h 77% 0in /  0.0mm
12:04 66.6 °F /  19.2 °C 59 °F /  15 °C 30.1in /  1017.9hPa Oeste 2.3mph /  3.7km/h 6.9mph /  11.1km/h 76.4% 0in /  0.0mm
12:09 66.6 °F /  19.2 °C 58.8 °F /  14.9 °C 30.1in /  1017.9hPa Oeste 2.4mph /  3.9km/h 7mph /  11.3km/h 76% 0in /  0.0mm
12:14 66.7 °F /  19.3 °C 58.8 °F /  14.9 °C 30.1in /  1017.8hPa Oeste 3.3mph /  5.3km/h 6.9mph /  11.1km/h 75.5% 0in /  0.0mm
12:19 66.7 °F /  19.3 °C 58.8 °F /  14.9 °C 30.1in /  1017.8hPa Oeste 3.6mph /  5.8km/h 7mph /  11.3km/h 76% 0in /  0.0mm
12:24 66.9 °F /  19.4 °C 59.2 °F /  15.1 °C 30.1in /  1017.8hPa ONO 3mph /  4.9km/h 5.2mph /  8.4km/h 75.8% 0in /  0.0mm
12:29 67.3 °F /  19.6 °C 58.8 °F /  14.9 °C 30.1in /  1017.6hPa SSO 2.9mph /  4.7km/h 5.8mph /  9.3km/h 74.4% 0in /  0.0mm
12:34 67.3 °F /  19.6 °C 58.8 °F /  14.9 °C 30.1in /  1017.6hPa SSO 2.9mph /  4.7km/h 6mph /  9.7km/h 74% 0in /  0.0mm
12:39 67.5 °F /  19.7 °C 58.8 °F /  14.9 °C 30.1in /  1017.6hPa SSO 2.9mph /  4.7km/h 6mph /  9.7km/h 74% 0in /  0.0mm
12:44 67.5 °F /  19.7 °C 59 °F /  15 °C 30in /  1017.4hPa SO 3mph /  4.9km/h 5.8mph /  9.3km/h 74% 0in /  0.0mm
12:49 67.6 °F /  19.8 °C 58.8 °F /  14.9 °C 30in /  1017.4hPa SO 3.1mph /  5km/h 6mph /  9.7km/h 73.5% 0in /  0.0mm
12:54 67.6 °F /  19.8 °C 58.8 °F /  14.9 °C 30in /  1017.4hPa OSO 2.9mph /  4.7km/h 6mph /  9.7km/h 73.3% 0in /  0.0mm
12:59 67.8 °F /  19.9 °C 58.8 °F /  14.9 °C 30in /  1017.2hPa OSO 2.9mph /  4.7km/h 6mph /  9.7km/h 73% 0in /  0.0mm
13:04 68 °F /  20 °C 59 °F /  15 °C 30in /  1017.2hPa SSO 2.9mph /  4.7km/h 5.4mph /  8.7km/h 73% 0in /  0.0mm
13:09 68.4 °F /  20.2 °C 59 °F /  15 °C 30in /  1017.2hPa OSO 2.9mph /  4.7km/h 6.2mph /  10km/h 72.2% 0in /  0.0mm
13:14 68.4 °F /  20.2 °C 59 °F /  15 °C 30in /  1017.1hPa ONO 3mph /  4.9km/h 6.4mph /  10.3km/h 72% 0in /  0.0mm
13:19 68.5 °F /  20.3 °C 59.2 °F /  15.1 °C 30in /  1017.1hPa OSO 3.1mph /  5km/h 6.9mph /  11.1km/h 72% 0in /  0.0mm
13:24 68.5 °F /  20.3 °C 58.8 °F /  14.9 °C 30in /  1017.1hPa OSO 3.1mph /  5km/h 7mph /  11.3km/h 71% 0in /  0.0mm
13:29 68.5 °F /  20.3 °C 58.8 °F /  14.9 °C 30in /  1016.9hPa OSO 3.1mph /  5km/h 7.4mph /  11.9km/h 70.9% 0in /  0.0mm
13:34 68.7 °F /  20.4 °C 58.6 °F /  14.8 °C 30in /  1016.9hPa SO 3.5mph /  5.6km/h 7mph /  11.3km/h 70.3% 0in /  0.0mm
13:39 68.7 °F /  20.4 °C 58.8 °F /  14.9 °C 30in /  1016.9hPa SSO 3.6mph /  5.8km/h 7mph /  11.3km/h 70.6% 0in /  0.0mm
13:44 68.9 °F /  20.5 °C 58.8 °F /  14.9 °C 30in /  1016.7hPa SSO 4.1mph /  6.6km/h 9.2mph /  14.8km/h 70.3% 0in /  0.0mm
13:49 68.7 °F /  20.4 °C 58.8 °F /  14.9 °C 30in /  1016.7hPa SSO 4.3mph /  6.9km/h 9mph /  14.5km/h 70.8% 0in /  0.0mm
13:54 68.9 °F /  20.5 °C 59 °F /  15 °C 30in /  1016.7hPa SSO 4.3mph /  6.9km/h 6.2mph /  10km/h 71% 0in /  0.0mm
13:59 69.1 °F /  20.6 °C 59.2 °F /  15.1 °C 30in /  1016.6hPa SO 4.3mph /  6.9km/h 8.1mph /  13km/h 71% 0in /  0.0mm
14:04 69.1 °F /  20.6 °C 59.2 °F /  15.1 °C 30in /  1016.6hPa SO 4.3mph /  6.9km/h 10mph /  16.1km/h 70.5% 0in /  0.0mm
14:09 68.9 °F /  20.5 °C 58.6 °F /  14.8 °C 30in /  1016.6hPa Sur 4.3mph /  6.9km/h 10.4mph /  16.7km/h 69.9% 0in /  0.0mm
14:14 68.9 °F /  20.5 °C 58.8 °F /  14.9 °C 30in /  1016.4hPa SSO 5.2mph /  8.3km/h 8.5mph /  13.7km/h 70% 0in /  0.0mm
14:19 69.1 °F /  20.6 °C 58.8 °F /  14.9 °C 30in /  1016.4hPa SSO 5.4mph /  8.7km/h 9mph /  14.5km/h 70% 0in /  0.0mm
14:24 69.1 °F /  20.6 °C 58.8 °F /  14.9 °C 30in /  1016.4hPa SSO 5.4mph /  8.7km/h 8.1mph /  13km/h 69.9% 0in /  0.0mm
14:29 69.3 °F /  20.7 °C 59 °F /  15 °C 30in /  1016.1hPa SSO 5.4mph /  8.7km/h 8mph /  12.9km/h 69.7% 0in /  0.0mm
14:34 69.4 °F /  20.8 °C 59 °F /  15 °C 30in /  1016.1hPa SSO 4mph /  6.5km/h 6mph /  9.7km/h 69.6% 0in /  0.0mm
14:39 69.4 °F /  20.8 °C 59 °F /  15 °C 30in /  1016.1hPa Sur 3.6mph /  5.8km/h 6.2mph /  10km/h 69.6% 0in /  0.0mm
14:44 69.4 °F /  20.8 °C 59.2 °F /  15.1 °C 30in /  1015.9hPa SSO 3.6mph /  5.8km/h 6mph /  9.7km/h 69.9% 0in /  0.0mm
14:49 69.6 °F /  20.9 °C 59.2 °F /  15.1 °C 30in /  1015.9hPa Sur 3.6mph /  5.8km/h 6.9mph /  11.1km/h 69.6% 0in /  0.0mm
14:54 69.6 °F /  20.9 °C 59 °F /  15 °C 30in /  1015.9hPa SE 3.2mph /  5.2km/h 7mph /  11.3km/h 69% 0in /  0.0mm
14:59 69.6 °F /  20.9 °C 59 °F /  15 °C 30in /  1015.6hPa SO 3.1mph /  5km/h 5.2mph /  8.4km/h 69% 0in /  0.0mm
15:04 69.6 °F /  20.9 °C 59 °F /  15 °C 30in /  1015.6hPa SO 2.9mph /  4.7km/h 5.2mph /  8.4km/h 69% 0in /  0.0mm
15:09 69.8 °F /  21 °C 59.2 °F /  15.1 °C 30in /  1015.6hPa OSO 2.9mph /  4.7km/h 5.2mph /  8.4km/h 69% 0in /  0.0mm
15:14 69.8 °F /  21 °C 59.2 °F /  15.1 °C 30in /  1015.5hPa SSE 2.9mph /  4.7km/h 5mph /  8km/h 69% 0in /  0.0mm
15:19 69.8 °F /  21 °C 59.2 °F /  15.1 °C 30in /  1015.5hPa SSE 2.9mph /  4.7km/h 5.2mph /  8.4km/h 69% 0in /  0.0mm
15:24 69.8 °F /  21 °C 59.2 °F /  15.1 °C 30in /  1015.5hPa Oeste 2.5mph /  4.1km/h 5.8mph /  9.3km/h 69% 0in /  0.0mm
15:29 69.8 °F /  21 °C 59.2 °F /  15.1 °C 30in /  1015.5hPa NO 2.4mph /  3.9km/h 6mph /  9.7km/h 69% 0in /  0.0mm
15:34 70.2 °F /  21.2 °C 59.4 °F /  15.2 °C 30in /  1015.5hPa OSO 2.9mph /  4.7km/h 5.9mph /  9.5km/h 69% 0in /  0.0mm
15:39 70.3 °F /  21.3 °C 59.7 °F /  15.4 °C 30in /  1015.5hPa Oeste 3.1mph /  5km/h 6.2mph /  10km/h 69% 0in /  0.0mm
15:44 70.3 °F /  21.3 °C 59.7 °F /  15.4 °C 30in /  1015.5hPa Oeste 3.1mph /  5km/h 6mph /  9.7km/h 69% 0in /  0.0mm
15:49 70.5 °F /  21.4 °C 59.5 °F /  15.3 °C 30in /  1015.5hPa Oeste 3.1mph /  5km/h 6.9mph /  11.1km/h 68% 0in /  0.0mm
15:54 70.5 °F /  21.4 °C 59.4 °F /  15.2 °C 30in /  1015.5hPa Oeste 3.1mph /  5km/h 7mph /  11.3km/h 68% 0in /  0.0mm
15:59 70.5 °F /  21.4 °C 59.4 °F /  15.2 °C 30in /  1015.5hPa ONO 3.1mph /  5km/h 6mph /  9.7km/h 68% 0in /  0.0mm
16:04 70.5 °F /  21.4 °C 59.7 °F /  15.4 °C 30in /  1015.5hPa ONO 2.9mph /  4.7km/h 6mph /  9.7km/h 68.7% 0in /  0.0mm
16:09 70.5 °F /  21.4 °C 59.9 °F /  15.5 °C 30in /  1015.5hPa ONO 2.9mph /  4.7km/h 4.7mph /  7.6km/h 68.8% 0in /  0.0mm
16:14 70.7 °F /  21.5 °C 59.9 °F /  15.5 °C 30in /  1015.5hPa NNO 2.2mph /  3.6km/h 5mph /  8km/h 68.9% 0in /  0.0mm
16:19 70.7 °F /  21.5 °C 59.9 °F /  15.5 °C 30in /  1015.5hPa NO 2mph /  3.2km/h 5mph /  8km/h 69% 0in /  0.0mm
16:24 70.9 °F /  21.6 °C 60.3 °F /  15.7 °C 30in /  1015.5hPa NO 1.6mph /  2.5km/h 2.9mph /  4.7km/h 68.9% 0in /  0.0mm
16:29 71.2 °F /  21.8 °C 60.1 °F /  15.6 °C 30in /  1015.5hPa SE 1.4mph /  2.2km/h 4.6mph /  7.4km/h 68% 0in /  0.0mm
16:34 71.6 °F /  22 °C 60.1 °F /  15.6 °C 30in /  1015.5hPa SSO 1.4mph /  2.2km/h 5mph /  8km/h 67.1% 0in /  0.0mm
16:39 71.8 °F /  22.1 °C 60.1 °F /  15.6 °C 30in /  1015.5hPa ESE 1.4mph /  2.2km/h 5.8mph /  9.3km/h 66.9% 0in /  0.0mm
16:44 71.4 °F /  21.9 °C 59.9 °F /  15.5 °C 30in /  1015.4hPa ESE 2.5mph /  4km/h 6mph /  9.7km/h 67.1% 0in /  0.0mm
16:49 71.2 °F /  21.8 °C 60.1 °F /  15.6 °C 30in /  1015.4hPa ESE 2.9mph /  4.7km/h 5mph /  8km/h 68% 0in /  0.0mm
16:54 71.4 °F /  21.9 °C 60.1 °F /  15.6 °C 30in /  1015.4hPa SSE 2.2mph /  3.6km/h 4.7mph /  7.6km/h 67.7% 0in /  0.0mm
16:59 71.4 °F /  21.9 °C 60.3 °F /  15.7 °C 30in /  1015.3hPa SSE 2mph /  3.2km/h 5mph /  8km/h 67.9% 0in /  0.0mm
17:04 71.6 °F /  22 °C 60.3 °F /  15.7 °C 30in /  1015.3hPa SO 2.3mph /  3.7km/h 5mph /  8km/h 67.4% 0in /  0.0mm
17:09 71.8 °F /  22.1 °C 60.3 °F /  15.7 °C 30in /  1015.3hPa SSO 2.4mph /  3.9km/h 5mph /  8km/h 67.2% 0in /  0.0mm
17:14 71.8 °F /  22.1 °C 60.3 °F /  15.7 °C 30in /  1015.2hPa SSE 2.1mph /  3.4km/h 5mph /  8km/h 67.3% 0in /  0.0mm
17:19 71.8 °F /  22.1 °C 60.4 °F /  15.8 °C 30in /  1015.2hPa SSE 2mph /  3.2km/h 3.5mph /  5.6km/h 67.7% 0in /  0.0mm
17:24 72 °F /  22.2 °C 60.4 °F /  15.8 °C 30in /  1015.2hPa SSE 0.5mph /  0.8km/h 4.7mph /  7.6km/h 67% 0in /  0.0mm
17:29 72 °F /  22.2 °C 60.4 °F /  15.8 °C 30in /  1014.9hPa Calm   5mph /  8km/h 67.1% 0in /  0.0mm
17:34 71.8 °F /  22.1 °C 60.4 °F /  15.8 °C 30in /  1014.9hPa SSE 1.4mph /  2.2km/h 4.6mph /  7.4km/h 67.4% 0in /  0.0mm
17:39 71.4 °F /  21.9 °C 60.4 °F /  15.8 °C 30in /  1014.9hPa SSE 1.8mph /  2.9km/h 5mph /  8km/h 68% 0in /  0.0mm
17:44 71.4 °F /  21.9 °C 60.3 °F /  15.7 °C 30in /  1014.9hPa ESE 1.5mph /  2.4km/h 4.6mph /  7.4km/h 68% 0in /  0.0mm
17:49 71.1 °F /  21.7 °C 60.3 °F /  15.7 °C 30in /  1014.9hPa ESE 1.4mph /  2.2km/h 5mph /  8km/h 68.6% 0in /  0.0mm
17:54 70.7 °F /  21.5 °C 60.4 °F /  15.8 °C 30in /  1015.0hPa ESE 2.5mph /  4.1km/h 5mph /  8km/h 69.8% 0in /  0.0mm
17:59 70.3 °F /  21.3 °C 60.3 °F /  15.7 °C 30in /  1015.0hPa ESE 2.9mph /  4.7km/h 5.2mph /  8.4km/h 70.7% 0in /  0.0mm
18:04 69.8 °F /  21 °C 60.1 °F /  15.6 °C 30in /  1015.0hPa ESE 2.9mph /  4.7km/h 6.2mph /  10km/h 71.3% 0in /  0.0mm
18:09 69.3 °F /  20.7 °C 59.9 °F /  15.5 °C 30in /  1015.1hPa ESE 2.9mph /  4.7km/h 6mph /  9.7km/h 72.3% 0in /  0.0mm
18:14 68.7 °F /  20.4 °C 59.9 °F /  15.5 °C 30in /  1015.1hPa ESE 3.7mph /  6km/h 6mph /  9.7km/h 73.2% 0in /  0.0mm
18:19 68.5 °F /  20.3 °C 59.9 °F /  15.5 °C 30in /  1015.1hPa ESE 4mph /  6.5km/h 6.9mph /  11.1km/h 74% 0in /  0.0mm
18:24 68.2 °F /  20.1 °C 59.9 °F /  15.5 °C 30in /  1015.1hPa ESE 4.2mph /  6.8km/h 7mph /  11.3km/h 75% 0in /  0.0mm
18:29 67.8 °F /  19.9 °C 59.9 °F /  15.5 °C 30in /  1015.1hPa ESE 4.3mph /  6.9km/h 6mph /  9.7km/h 75.8% 0in /  0.0mm
18:34 67.6 °F /  19.8 °C 59.9 °F /  15.5 °C 30in /  1015.1hPa ESE 3.4mph /  5.5km/h 5.2mph /  8.4km/h 76% 0in /  0.0mm
18:39 67.5 °F /  19.7 °C 59.9 °F /  15.5 °C 30in /  1015.1hPa ESE 3.1mph /  5km/h 5.2mph /  8.4km/h 76.5% 0in /  0.0mm
18:44 67.3 °F /  19.6 °C 59.9 °F /  15.5 °C 30in /  1015.1hPa ESE 3.1mph /  5km/h 5mph /  8km/h 77% 0in /  0.0mm
18:49 67.1 °F /  19.5 °C 59.7 °F /  15.4 °C 30in /  1015.1hPa ESE 3.1mph /  5km/h 5mph /  8km/h 77.2% 0in /  0.0mm
18:54 66.9 °F /  19.4 °C 59.7 °F /  15.4 °C 30in /  1015.1hPa ESE 2.9mph /  4.7km/h 5.2mph /  8.4km/h 78% 0in /  0.0mm
18:59 66.7 °F /  19.3 °C 59.7 °F /  15.4 °C 30in /  1015.1hPa ESE 2.9mph /  4.7km/h 5.9mph /  9.5km/h 78% 0in /  0.0mm
19:04 66.6 °F /  19.2 °C 59.7 °F /  15.4 °C 30in /  1015.1hPa ESE 3mph /  4.9km/h 6mph /  9.7km/h 79% 0in /  0.0mm
19:09 66.6 °F /  19.2 °C 59.7 °F /  15.4 °C 30in /  1015.3hPa ESE 3.1mph /  5km/h 6mph /  9.7km/h 79% 0in /  0.0mm
19:14 66.4 °F /  19.1 °C 59.7 °F /  15.4 °C 30in /  1015.3hPa ESE 3.1mph /  5km/h 5.8mph /  9.3km/h 79% 0in /  0.0mm
19:19 66.2 °F /  19 °C 59.5 °F /  15.3 °C 30in /  1015.3hPa ESE 3.1mph /  5km/h 6mph /  9.7km/h 79% 0in /  0.0mm
19:24 66.2 °F /  19 °C 59.5 °F /  15.3 °C 30in /  1015.4hPa ESE 3.5mph /  5.6km/h 6mph /  9.7km/h 79% 0in /  0.0mm
19:29 66 °F /  18.9 °C 59.4 °F /  15.2 °C 30in /  1015.4hPa SE 3.6mph /  5.8km/h 6mph /  9.7km/h 79% 0in /  0.0mm
19:34 66 °F /  18.9 °C 59.4 °F /  15.2 °C 30in /  1015.4hPa ESE 3.2mph /  5.2km/h 5.2mph /  8.4km/h 79% 0in /  0.0mm
19:39 65.8 °F /  18.8 °C 59.4 °F /  15.2 °C 30in /  1015.4hPa SE 3.1mph /  5km/h 5.2mph /  8.4km/h 79.5% 0in /  0.0mm
19:44 65.8 °F /  18.8 °C 59.5 °F /  15.3 °C 30in /  1015.4hPa Sur 2.5mph /  4.1km/h 5mph /  8km/h 80% 0in /  0.0mm
19:49 65.8 °F /  18.8 °C 59.5 °F /  15.3 °C 30in /  1015.4hPa OSO 2.4mph /  3.9km/h 5mph /  8km/h 80% 0in /  0.0mm
19:54 65.7 °F /  18.7 °C 59.4 °F /  15.2 °C 30in /  1015.4hPa Oeste 2.1mph /  3.4km/h 5mph /  8km/h 80% 0in /  0.0mm
19:59 65.7 °F /  18.7 °C 59.5 °F /  15.3 °C 30in /  1015.4hPa Oeste 2mph /  3.2km/h 3mph /  4.8km/h 80.7% 0in /  0.0mm
20:04 65.5 °F /  18.6 °C 59.5 °F /  15.3 °C 30in /  1015.4hPa Oeste 0.4mph /  0.7km/h   81% 0in /  0.0mm
20:09 65.5 °F /  18.6 °C 59.5 °F /  15.3 °C 30in /  1015.4hPa Calm   2.4mph /  3.9km/h 81.1% 0in /  0.0mm
20:14 65.3 °F /  18.5 °C 59.7 °F /  15.4 °C 30in /  1015.4hPa Calm   2.4mph /  3.9km/h 82% 0in /  0.0mm
20:19 65.1 °F /  18.4 °C 59.5 °F /  15.3 °C 30in /  1015.4hPa Calm   4.6mph /  7.4km/h 82% 0in /  0.0mm
20:24 65.3 °F /  18.5 °C 59.7 °F /  15.4 °C 30in /  1015.5hPa SSO 1.5mph /  2.4km/h 5mph /  8km/h 82% 0in /  0.0mm
20:29 65.3 °F /  18.5 °C 59.7 °F /  15.4 °C 30in /  1015.5hPa SO 2mph /  3.2km/h 5mph /  8km/h 82% 0in /  0.0mm
20:34 65.3 °F /  18.5 °C 60.1 °F /  15.6 °C 30in /  1015.5hPa SO 2.7mph /  4.3km/h 6.2mph /  10km/h 82.9% 0in /  0.0mm
20:39 65.3 °F /  18.5 °C 60.1 °F /  15.6 °C 30in /  1015.5hPa SSO 2.9mph /  4.7km/h 6mph /  9.7km/h 83% 0in /  0.0mm
20:44 65.1 °F /  18.4 °C 59.9 °F /  15.5 °C 30in /  1015.5hPa Sur 2.9mph /  4.7km/h 5mph /  8km/h 83% 0in /  0.0mm
20:49 65.1 °F /  18.4 °C 59.7 °F /  15.4 °C 30in /  1015.5hPa SSO 2.9mph /  4.7km/h 5.2mph /  8.4km/h 83% 0in /  0.0mm
20:54 64.9 °F /  18.3 °C 60.1 °F /  15.6 °C 30in /  1015.5hPa SSO 3mph /  4.9km/h 5.8mph /  9.3km/h 84% 0in /  0.0mm
20:59 64.9 °F /  18.3 °C 59.9 °F /  15.5 °C 30in /  1015.4hPa SSO 3.1mph /  5km/h 6mph /  9.7km/h 84% 0in /  0.0mm
21:04 64.8 °F /  18.2 °C 59.7 °F /  15.4 °C 30in /  1015.4hPa Sur 3.1mph /  5km/h 5mph /  8km/h 84% 0in /  0.0mm
21:09 64.6 °F /  18.1 °C 59.5 °F /  15.3 °C 30in /  1015.5hPa Sur 3.1mph /  5km/h 5mph /  8km/h 84% 0in /  0.0mm
21:14 64.6 °F /  18.1 °C 59.5 °F /  15.3 °C 30in /  1015.5hPa Sur 1.9mph /  3km/h 2.3mph /  3.7km/h 84.1% 0in /  0.0mm
21:19 64.4 °F /  18 °C 59.7 °F /  15.4 °C 30in /  1015.5hPa Sur 1.4mph /  2.2km/h 3.6mph /  5.8km/h 85% 0in /  0.0mm
21:24 64.4 °F /  18 °C 59.7 °F /  15.4 °C 30in /  1015.6hPa SSO 1.7mph /  2.7km/h 4.6mph /  7.4km/h 85% 0in /  0.0mm
21:29 64.2 °F /  17.9 °C 59.7 °F /  15.4 °C 30in /  1015.6hPa SSO 1.8mph /  2.9km/h 5mph /  8km/h 85% 0in /  0.0mm
21:34 64.2 °F /  17.9 °C 59.9 °F /  15.5 °C 30in /  1015.6hPa Sur 2.6mph /  4.2km/h 5mph /  8km/h 86% 0in /  0.0mm
21:39 64.2 °F /  17.9 °C 59.9 °F /  15.5 °C 30in /  1015.7hPa SSE 2.9mph /  4.7km/h 5.2mph /  8.4km/h 86% 0in /  0.0mm
21:44 64 °F /  17.8 °C 59.9 °F /  15.5 °C 30in /  1015.7hPa SE 2.5mph /  4km/h 5mph /  8km/h 86% 0in /  0.0mm
21:49 64 °F /  17.8 °C 59.5 °F /  15.3 °C 30in /  1015.7hPa SE 2.4mph /  3.9km/h 5mph /  8km/h 85.4% 0in /  0.0mm
21:54 63.9 °F /  17.7 °C 59.5 °F /  15.3 °C 30in /  1015.9hPa SSE 2.4mph /  3.9km/h 5mph /  8km/h 86% 0in /  0.0mm
21:59 63.9 °F /  17.7 °C 59.5 °F /  15.3 °C 30in /  1015.9hPa SSE 2.4mph /  3.9km/h 5mph /  8km/h 86% 0in /  0.0mm
22:04 63.7 °F /  17.6 °C 59.7 °F /  15.4 °C 30in /  1015.9hPa SSE 2.4mph /  3.9km/h 3.5mph /  5.6km/h 87% 0in /  0.0mm
22:09 63.7 °F /  17.6 °C 59.5 °F /  15.3 °C 30in /  1015.9hPa SSE 2.4mph /  3.9km/h 3mph /  4.8km/h 86.5% 0in /  0.0mm
22:14 63.7 °F /  17.6 °C 59.4 °F /  15.2 °C 30in /  1015.8hPa SSE 1.6mph /  2.6km/h 3.5mph /  5.6km/h 86% 0in /  0.0mm
22:19 63.3 °F /  17.4 °C 59.2 °F /  15.1 °C 30in /  1015.8hPa SSE 1.4mph /  2.2km/h 4.3mph /  6.9km/h 86% 0in /  0.0mm
22:24 63.1 °F /  17.3 °C 59 °F /  15 °C 30in /  1015.9hPa SSE 1.9mph /  3km/h 5mph /  8km/h 86.2% 0in /  0.0mm
22:29 63 °F /  17.2 °C 59 °F /  15 °C 30in /  1015.9hPa SSE 2mph /  3.2km/h 5mph /  8km/h 87% 0in /  0.0mm
22:34 63 °F /  17.2 °C 59 °F /  15 °C 30in /  1015.9hPa Sur 2mph /  3.2km/h 4mph /  6.4km/h 87.2% 0in /  0.0mm
22:39 63 °F /  17.2 °C 59.4 °F /  15.2 °C 30in /  1015.9hPa SO 2mph /  3.2km/h 5.9mph /  9.5km/h 88% 0in /  0.0mm
22:44 63 °F /  17.2 °C 59.4 °F /  15.2 °C 30in /  1015.8hPa OSO 2.7mph /  4.3km/h 6.2mph /  10km/h 88% 0in /  0.0mm
22:49 63 °F /  17.2 °C 59.4 °F /  15.2 °C 30in /  1015.8hPa SO 2.9mph /  4.7km/h 6mph /  9.7km/h 88% 0in /  0.0mm
22:54 62.8 °F /  17.1 °C 59.2 °F /  15.1 °C 30in /  1015.8hPa SO 3.4mph /  5.5km/h 6mph /  9.7km/h 88% 0in /  0.0mm
22:59 62.8 °F /  17.1 °C 59.2 °F /  15.1 °C 30in /  1015.8hPa SSO 3.6mph /  5.8km/h 5.2mph /  8.4km/h 88% 0in /  0.0mm
23:04 62.8 °F /  17.1 °C 59.2 °F /  15.1 °C 30in /  1015.8hPa Sur 3.2mph /  5.2km/h 5.4mph /  8.7km/h 88% 0in /  0.0mm
23:09 62.6 °F /  17 °C 59 °F /  15 °C 30in /  1015.8hPa Sur 3.1mph /  5km/h 6mph /  9.7km/h 88% 0in /  0.0mm
23:14 62.4 °F /  16.9 °C 58.8 °F /  14.9 °C 30in /  1015.8hPa Sur 3.1mph /  5km/h 5.2mph /  8.4km/h 88% 0in /  0.0mm
23:19 62.2 °F /  16.8 °C 58.6 °F /  14.8 °C 30in /  1015.8hPa Sur 3.1mph /  5km/h 5.2mph /  8.4km/h 88% 0in /  0.0mm
23:24 62.2 °F /  16.8 °C 58.6 °F /  14.8 °C 30in /  1015.8hPa SSE 3.5mph /  5.6km/h 5.2mph /  8.4km/h 88% 0in /  0.0mm
23:29 62.1 °F /  16.7 °C 58.6 °F /  14.8 °C 30in /  1015.7hPa Sur 3.6mph /  5.8km/h 5mph /  8km/h 88.7% 0in /  0.0mm
23:34 61.9 °F /  16.6 °C 58.6 °F /  14.8 °C 30in /  1015.7hPa SSE 3.2mph /  5.2km/h 5mph /  8km/h 89% 0in /  0.0mm
23:39 61.9 °F /  16.6 °C 58.6 °F /  14.8 °C 30in /  1015.7hPa Sur 3.1mph /  5km/h 4.7mph /  7.6km/h 89% 0in /  0.0mm
23:44 61.9 °F /  16.6 °C 58.5 °F /  14.7 °C 30in /  1015.7hPa SSE 2.9mph /  4.7km/h 5mph /  8km/h 89% 0in /  0.0mm
23:49 61.7 °F /  16.5 °C 58.5 °F /  14.7 °C 30in /  1015.7hPa SSE 2.9mph /  4.7km/h 5mph /  8km/h 89% 0in /  0.0mm
23:54 61.7 °F /  16.5 °C 58.5 °F /  14.7 °C 30in /  1015.7hPa Sur 2.9mph /  4.7km/h 5mph /  8km/h 89.5% 0in /  0.0mm
23:59 61.7 °F /  16.5 °C 58.6 °F /  14.8 °C 30in /  1015.7hPa SSE 2.9mph /  4.7km/h 5mph /  8km/h 90% 0in /  0.0mm
Murcia-Puente Tocinos, Espa?a
Compliments of Weather Underground - 3.25 mb

La estación de MeteoMurcia.com, publica sus datos en los siguientes proyectos:

Weather Underground PWS IMURCIAP2 Meteoclimatic www.awekas.at

W3Counter
Web Analytics